sensor_id;sensor_type;location;lat;lon;timestamp;P1;durP1;ratioP1;P2;durP2;ratioP2
20245;SDS011;10281;54.406;18.556;2024-03-02T00:00:48;35.13;;;25.17;;
20245;SDS011;10281;54.406;18.556;2024-03-02T00:03:17;37.13;;;24.93;;
20245;SDS011;10281;54.406;18.556;2024-03-02T00:05:47;36.47;;;25.17;;
20245;SDS011;10281;54.406;18.556;2024-03-02T00:08:16;38.30;;;25.30;;
20245;SDS011;10281;54.406;18.556;2024-03-02T00:10:48;36.03;;;25.43;;
20245;SDS011;10281;54.406;18.556;2024-03-02T00:13:14;38.13;;;25.20;;
20245;SDS011;10281;54.406;18.556;2024-03-02T00:15:45;34.67;;;26.23;;
20245;SDS011;10281;54.406;18.556;2024-03-02T00:18:16;37.50;;;26.63;;
20245;SDS011;10281;54.406;18.556;2024-03-02T00:20:47;33.67;;;24.40;;
20245;SDS011;10281;54.406;18.556;2024-03-02T00:23:14;37.30;;;25.63;;
20245;SDS011;10281;54.406;18.556;2024-03-02T00:25:43;35.77;;;26.10;;
20245;SDS011;10281;54.406;18.556;2024-03-02T00:28:16;35.30;;;25.23;;
20245;SDS011;10281;54.406;18.556;2024-03-02T00:31:07;35.77;;;25.90;;
20245;SDS011;10281;54.406;18.556;2024-03-02T00:33:42;36.27;;;26.00;;
20245;SDS011;10281;54.406;18.556;2024-03-02T00:36:10;38.10;;;26.67;;
20245;SDS011;10281;54.406;18.556;2024-03-02T00:38:42;39.20;;;26.53;;
20245;SDS011;10281;54.406;18.556;2024-03-02T00:43:53;33.97;;;24.60;;
20245;SDS011;10281;54.406;18.556;2024-03-02T00:46:23;35.13;;;24.60;;
20245;SDS011;10281;54.406;18.556;2024-03-02T00:48:51;33.47;;;23.83;;
20245;SDS011;10281;54.406;18.556;2024-03-02T00:51:23;34.87;;;25.00;;
20245;SDS011;10281;54.406;18.556;2024-03-02T00:53:52;35.33;;;24.60;;
20245;SDS011;10281;54.406;18.556;2024-03-02T00:56:22;33.67;;;24.00;;
20245;SDS011;10281;54.406;18.556;2024-03-02T00:58:50;31.77;;;23.63;;
20245;SDS011;10281;54.406;18.556;2024-03-02T01:01:17;34.03;;;24.77;;
20245;SDS011;10281;54.406;18.556;2024-03-02T01:03:45;35.17;;;24.30;;
20245;SDS011;10281;54.406;18.556;2024-03-02T01:06:12;36.13;;;24.57;;
20245;SDS011;10281;54.406;18.556;2024-03-02T01:08:38;29.63;;;23.13;;
20245;SDS011;10281;54.406;18.556;2024-03-02T01:11:05;38.10;;;24.77;;
20245;SDS011;10281;54.406;18.556;2024-03-02T01:13:32;33.70;;;23.10;;
20245;SDS011;10281;54.406;18.556;2024-03-02T01:15:59;35.80;;;25.20;;
20245;SDS011;10281;54.406;18.556;2024-03-02T01:18:26;33.43;;;25.13;;
20245;SDS011;10281;54.406;18.556;2024-03-02T01:20:53;34.17;;;25.17;;
20245;SDS011;10281;54.406;18.556;2024-03-02T01:23:22;32.13;;;23.37;;
20245;SDS011;10281;54.406;18.556;2024-03-02T01:25:49;34.60;;;25.40;;
20245;SDS011;10281;54.406;18.556;2024-03-02T01:28:17;31.60;;;23.60;;
20245;SDS011;10281;54.406;18.556;2024-03-02T01:30:46;33.60;;;24.77;;
20245;SDS011;10281;54.406;18.556;2024-03-02T01:33:13;31.60;;;23.53;;
20245;SDS011;10281;54.406;18.556;2024-03-02T01:35:40;37.30;;;25.33;;
20245;SDS011;10281;54.406;18.556;2024-03-02T01:38:06;37.07;;;24.63;;
20245;SDS011;10281;54.406;18.556;2024-03-02T01:40:34;33.17;;;24.33;;
20245;SDS011;10281;54.406;18.556;2024-03-02T01:43:01;33.17;;;23.60;;
20245;SDS011;10281;54.406;18.556;2024-03-02T01:45:28;34.07;;;24.43;;
20245;SDS011;10281;54.406;18.556;2024-03-02T01:47:55;33.37;;;23.37;;
20245;SDS011;10281;54.406;18.556;2024-03-02T01:50:25;36.47;;;23.83;;
20245;SDS011;10281;54.406;18.556;2024-03-02T01:52:54;35.07;;;24.47;;
20245;SDS011;10281;54.406;18.556;2024-03-02T01:55:21;35.83;;;24.03;;
20245;SDS011;10281;54.406;18.556;2024-03-02T01:57:49;38.90;;;25.13;;
20245;SDS011;10281;54.406;18.556;2024-03-02T02:00:17;35.23;;;23.80;;
20245;SDS011;10281;54.406;18.556;2024-03-02T02:02:48;31.27;;;24.00;;
20245;SDS011;10281;54.406;18.556;2024-03-02T02:05:15;34.07;;;25.50;;
20245;SDS011;10281;54.406;18.556;2024-03-02T02:07:42;35.33;;;24.33;;
20245;SDS011;10281;54.406;18.556;2024-03-02T02:10:10;33.87;;;23.93;;
20245;SDS011;10281;54.406;18.556;2024-03-02T02:12:37;31.43;;;23.47;;
20245;SDS011;10281;54.406;18.556;2024-03-02T02:15:07;32.93;;;23.60;;
20245;SDS011;10281;54.406;18.556;2024-03-02T02:17:49;32.97;;;23.50;;
20245;SDS011;10281;54.406;18.556;2024-03-02T02:20:16;34.97;;;23.63;;
20245;SDS011;10281;54.406;18.556;2024-03-02T02:25:21;33.53;;;24.27;;
20245;SDS011;10281;54.406;18.556;2024-03-02T02:27:47;33.20;;;23.43;;
20245;SDS011;10281;54.406;18.556;2024-03-02T02:30:17;33.27;;;23.77;;
20245;SDS011;10281;54.406;18.556;2024-03-02T02:32:46;36.43;;;24.17;;
20245;SDS011;10281;54.406;18.556;2024-03-02T02:35:13;37.97;;;24.03;;
20245;SDS011;10281;54.406;18.556;2024-03-02T02:37:39;34.17;;;23.03;;
20245;SDS011;10281;54.406;18.556;2024-03-02T02:40:07;34.23;;;22.93;;
20245;SDS011;10281;54.406;18.556;2024-03-02T02:42:34;29.30;;;23.53;;
20245;SDS011;10281;54.406;18.556;2024-03-02T02:45:01;32.80;;;22.80;;
20245;SDS011;10281;54.406;18.556;2024-03-02T02:47:28;33.20;;;24.10;;
20245;SDS011;10281;54.406;18.556;2024-03-02T02:49:55;32.03;;;23.10;;
20245;SDS011;10281;54.406;18.556;2024-03-02T02:52:22;32.77;;;23.03;;
20245;SDS011;10281;54.406;18.556;2024-03-02T02:54:49;33.77;;;23.50;;
20245;SDS011;10281;54.406;18.556;2024-03-02T02:57:15;36.57;;;23.57;;
20245;SDS011;10281;54.406;18.556;2024-03-02T02:59:42;35.87;;;23.53;;
20245;SDS011;10281;54.406;18.556;2024-03-02T03:02:08;36.17;;;24.10;;
20245;SDS011;10281;54.406;18.556;2024-03-02T03:04:35;35.50;;;23.53;;
20245;SDS011;10281;54.406;18.556;2024-03-02T03:07:02;34.47;;;23.97;;
20245;SDS011;10281;54.406;18.556;2024-03-02T03:09:28;32.10;;;23.23;;
20245;SDS011;10281;54.406;18.556;2024-03-02T03:11:55;33.50;;;23.03;;
20245;SDS011;10281;54.406;18.556;2024-03-02T03:14:21;32.97;;;23.30;;
20245;SDS011;10281;54.406;18.556;2024-03-02T03:16:48;33.87;;;23.73;;
20245;SDS011;10281;54.406;18.556;2024-03-02T03:19:15;33.53;;;22.40;;
20245;SDS011;10281;54.406;18.556;2024-03-02T03:21:43;33.67;;;23.60;;
20245;SDS011;10281;54.406;18.556;2024-03-02T03:24:10;32.23;;;22.57;;
20245;SDS011;10281;54.406;18.556;2024-03-02T03:26:36;31.50;;;23.87;;
20245;SDS011;10281;54.406;18.556;2024-03-02T03:29:03;31.40;;;22.83;;
20245;SDS011;10281;54.406;18.556;2024-03-02T03:31:29;34.63;;;24.03;;
20245;SDS011;10281;54.406;18.556;2024-03-02T03:33:56;31.20;;;22.90;;
20245;SDS011;10281;54.406;18.556;2024-03-02T03:36:23;32.23;;;23.30;;
20245;SDS011;10281;54.406;18.556;2024-03-02T03:38:50;32.17;;;22.93;;
20245;SDS011;10281;54.406;18.556;2024-03-02T03:41:16;32.47;;;23.97;;
20245;SDS011;10281;54.406;18.556;2024-03-02T03:43:43;34.27;;;23.63;;
20245;SDS011;10281;54.406;18.556;2024-03-02T03:46:09;33.93;;;23.63;;
20245;SDS011;10281;54.406;18.556;2024-03-02T03:48:36;34.77;;;23.97;;
20245;SDS011;10281;54.406;18.556;2024-03-02T03:51:03;31.73;;;23.27;;
20245;SDS011;10281;54.406;18.556;2024-03-02T03:53:30;32.63;;;22.93;;
20245;SDS011;10281;54.406;18.556;2024-03-02T03:55:57;34.00;;;22.97;;
20245;SDS011;10281;54.406;18.556;2024-03-02T03:58:23;32.97;;;23.37;;
20245;SDS011;10281;54.406;18.556;2024-03-02T04:00:50;34.10;;;23.97;;
20245;SDS011;10281;54.406;18.556;2024-03-02T04:03:17;31.70;;;23.03;;
20245;SDS011;10281;54.406;18.556;2024-03-02T04:05:43;32.73;;;23.40;;
20245;SDS011;10281;54.406;18.556;2024-03-02T04:08:10;35.30;;;23.63;;
20245;SDS011;10281;54.406;18.556;2024-03-02T04:10:37;37.40;;;24.40;;
20245;SDS011;10281;54.406;18.556;2024-03-02T04:13:04;31.73;;;22.67;;
20245;SDS011;10281;54.406;18.556;2024-03-02T04:15:30;36.20;;;24.37;;
20245;SDS011;10281;54.406;18.556;2024-03-02T04:17:57;32.03;;;23.47;;
20245;SDS011;10281;54.406;18.556;2024-03-02T04:20:24;38.07;;;25.07;;
20245;SDS011;10281;54.406;18.556;2024-03-02T04:22:51;33.97;;;24.00;;
20245;SDS011;10281;54.406;18.556;2024-03-02T04:25:17;37.10;;;24.87;;
20245;SDS011;10281;54.406;18.556;2024-03-02T04:27:45;33.90;;;24.23;;
20245;SDS011;10281;54.406;18.556;2024-03-02T04:30:12;35.47;;;24.50;;
20245;SDS011;10281;54.406;18.556;2024-03-02T04:32:39;36.43;;;24.83;;
20245;SDS011;10281;54.406;18.556;2024-03-02T04:35:06;34.90;;;25.67;;
20245;SDS011;10281;54.406;18.556;2024-03-02T04:37:34;35.23;;;24.63;;
20245;SDS011;10281;54.406;18.556;2024-03-02T04:40:01;34.13;;;24.00;;
20245;SDS011;10281;54.406;18.556;2024-03-02T04:42:27;36.60;;;24.20;;
20245;SDS011;10281;54.406;18.556;2024-03-02T04:44:54;34.87;;;24.63;;
20245;SDS011;10281;54.406;18.556;2024-03-02T04:47:20;35.80;;;23.53;;
20245;SDS011;10281;54.406;18.556;2024-03-02T04:49:48;35.93;;;25.07;;
20245;SDS011;10281;54.406;18.556;2024-03-02T04:52:14;35.27;;;24.77;;
20245;SDS011;10281;54.406;18.556;2024-03-02T04:54:41;36.33;;;24.23;;
20245;SDS011;10281;54.406;18.556;2024-03-02T04:57:13;37.20;;;24.77;;
20245;SDS011;10281;54.406;18.556;2024-03-02T04:59:40;36.40;;;24.17;;
20245;SDS011;10281;54.406;18.556;2024-03-02T05:02:06;35.73;;;24.87;;
20245;SDS011;10281;54.406;18.556;2024-03-02T05:04:33;36.20;;;25.23;;
20245;SDS011;10281;54.406;18.556;2024-03-02T05:07:00;31.77;;;24.40;;
20245;SDS011;10281;54.406;18.556;2024-03-02T05:09:27;34.80;;;24.83;;
20245;SDS011;10281;54.406;18.556;2024-03-02T05:11:54;38.37;;;25.33;;
20245;SDS011;10281;54.406;18.556;2024-03-02T05:14:24;39.73;;;25.00;;
20245;SDS011;10281;54.406;18.556;2024-03-02T05:16:51;36.20;;;24.50;;
20245;SDS011;10281;54.406;18.556;2024-03-02T05:19:17;34.90;;;24.37;;
20245;SDS011;10281;54.406;18.556;2024-03-02T05:21:44;36.43;;;24.80;;
20245;SDS011;10281;54.406;18.556;2024-03-02T05:24:10;34.13;;;24.30;;
20245;SDS011;10281;54.406;18.556;2024-03-02T05:26:37;36.30;;;24.67;;
20245;SDS011;10281;54.406;18.556;2024-03-02T05:29:04;37.43;;;25.20;;
20245;SDS011;10281;54.406;18.556;2024-03-02T05:31:30;35.93;;;24.70;;
20245;SDS011;10281;54.406;18.556;2024-03-02T05:33:57;37.13;;;25.03;;
20245;SDS011;10281;54.406;18.556;2024-03-02T05:36:23;36.00;;;24.33;;
20245;SDS011;10281;54.406;18.556;2024-03-02T05:38:50;37.83;;;25.20;;
20245;SDS011;10281;54.406;18.556;2024-03-02T05:41:17;36.87;;;24.83;;
20245;SDS011;10281;54.406;18.556;2024-03-02T05:43:43;35.37;;;24.30;;
20245;SDS011;10281;54.406;18.556;2024-03-02T05:46:10;38.47;;;25.90;;
20245;SDS011;10281;54.406;18.556;2024-03-02T05:48:37;41.27;;;28.73;;
20245;SDS011;10281;54.406;18.556;2024-03-02T05:51:04;39.33;;;27.93;;
20245;SDS011;10281;54.406;18.556;2024-03-02T05:53:30;40.17;;;28.27;;
20245;SDS011;10281;54.406;18.556;2024-03-02T05:55:57;39.00;;;26.10;;
20245;SDS011;10281;54.406;18.556;2024-03-02T05:58:24;37.37;;;25.30;;
20245;SDS011;10281;54.406;18.556;2024-03-02T06:00:56;38.23;;;26.33;;
20245;SDS011;10281;54.406;18.556;2024-03-02T06:03:23;36.37;;;24.87;;
20245;SDS011;10281;54.406;18.556;2024-03-02T06:05:49;38.90;;;25.23;;
20245;SDS011;10281;54.406;18.556;2024-03-02T06:08:16;38.83;;;26.00;;
20245;SDS011;10281;54.406;18.556;2024-03-02T06:10:43;39.73;;;25.77;;
20245;SDS011;10281;54.406;18.556;2024-03-02T06:13:09;36.50;;;24.40;;
20245;SDS011;10281;54.406;18.556;2024-03-02T06:15:36;38.27;;;25.33;;
20245;SDS011;10281;54.406;18.556;2024-03-02T06:18:03;36.03;;;25.47;;
20245;SDS011;10281;54.406;18.556;2024-03-02T06:20:32;37.80;;;24.93;;
20245;SDS011;10281;54.406;18.556;2024-03-02T06:22:58;39.27;;;26.77;;
20245;SDS011;10281;54.406;18.556;2024-03-02T06:25:25;37.67;;;26.07;;
20245;SDS011;10281;54.406;18.556;2024-03-02T06:27:51;37.00;;;25.43;;
20245;SDS011;10281;54.406;18.556;2024-03-02T06:30:19;36.43;;;24.37;;
20245;SDS011;10281;54.406;18.556;2024-03-02T06:32:45;40.30;;;26.20;;
20245;SDS011;10281;54.406;18.556;2024-03-02T06:35:12;36.93;;;25.93;;
20245;SDS011;10281;54.406;18.556;2024-03-02T06:37:38;38.50;;;25.63;;
20245;SDS011;10281;54.406;18.556;2024-03-02T06:40:06;38.40;;;25.00;;
20245;SDS011;10281;54.406;18.556;2024-03-02T06:42:34;37.63;;;26.17;;
20245;SDS011;10281;54.406;18.556;2024-03-02T06:45:01;39.13;;;25.80;;
20245;SDS011;10281;54.406;18.556;2024-03-02T06:47:29;38.63;;;26.80;;
20245;SDS011;10281;54.406;18.556;2024-03-02T06:49:56;37.27;;;24.90;;
20245;SDS011;10281;54.406;18.556;2024-03-02T06:52:24;41.87;;;26.03;;
20245;SDS011;10281;54.406;18.556;2024-03-02T06:54:51;37.37;;;25.77;;
20245;SDS011;10281;54.406;18.556;2024-03-02T06:57:17;41.20;;;27.33;;
20245;SDS011;10281;54.406;18.556;2024-03-02T06:59:46;39.10;;;26.23;;
20245;SDS011;10281;54.406;18.556;2024-03-02T07:02:14;35.93;;;26.40;;
20245;SDS011;10281;54.406;18.556;2024-03-02T07:04:41;40.13;;;26.93;;
20245;SDS011;10281;54.406;18.556;2024-03-02T07:07:08;36.20;;;26.67;;
20245;SDS011;10281;54.406;18.556;2024-03-02T07:09:34;39.53;;;27.80;;
20245;SDS011;10281;54.406;18.556;2024-03-02T07:12:01;38.03;;;27.00;;
20245;SDS011;10281;54.406;18.556;2024-03-02T07:14:27;42.97;;;28.27;;
20245;SDS011;10281;54.406;18.556;2024-03-02T07:16:56;43.43;;;27.93;;
20245;SDS011;10281;54.406;18.556;2024-03-02T07:19:23;41.03;;;26.73;;
20245;SDS011;10281;54.406;18.556;2024-03-02T07:21:49;39.47;;;27.93;;
20245;SDS011;10281;54.406;18.556;2024-03-02T07:24:16;41.87;;;28.93;;
20245;SDS011;10281;54.406;18.556;2024-03-02T07:26:42;43.17;;;28.97;;
20245;SDS011;10281;54.406;18.556;2024-03-02T07:29:09;41.57;;;29.37;;
20245;SDS011;10281;54.406;18.556;2024-03-02T07:31:36;43.93;;;29.33;;
20245;SDS011;10281;54.406;18.556;2024-03-02T07:34:02;39.70;;;28.73;;
20245;SDS011;10281;54.406;18.556;2024-03-02T07:36:29;45.93;;;28.37;;
20245;SDS011;10281;54.406;18.556;2024-03-02T07:38:55;44.90;;;29.33;;
20245;SDS011;10281;54.406;18.556;2024-03-02T07:41:22;42.97;;;29.53;;
20245;SDS011;10281;54.406;18.556;2024-03-02T07:43:49;43.53;;;28.53;;
20245;SDS011;10281;54.406;18.556;2024-03-02T07:46:15;42.60;;;29.23;;
20245;SDS011;10281;54.406;18.556;2024-03-02T07:48:43;41.17;;;28.33;;
20245;SDS011;10281;54.406;18.556;2024-03-02T07:51:09;46.20;;;30.20;;
20245;SDS011;10281;54.406;18.556;2024-03-02T07:53:36;42.17;;;28.20;;
20245;SDS011;10281;54.406;18.556;2024-03-02T07:56:03;42.13;;;27.60;;
20245;SDS011;10281;54.406;18.556;2024-03-02T07:58:30;41.53;;;29.60;;
20245;SDS011;10281;54.406;18.556;2024-03-02T08:00:57;48.13;;;30.30;;
20245;SDS011;10281;54.406;18.556;2024-03-02T08:03:23;39.40;;;27.70;;
20245;SDS011;10281;54.406;18.556;2024-03-02T08:05:50;44.83;;;27.83;;
20245;SDS011;10281;54.406;18.556;2024-03-02T08:08:17;42.50;;;28.50;;
20245;SDS011;10281;54.406;18.556;2024-03-02T08:10:44;40.17;;;27.90;;
20245;SDS011;10281;54.406;18.556;2024-03-02T08:13:10;40.33;;;27.53;;
20245;SDS011;10281;54.406;18.556;2024-03-02T08:15:37;39.40;;;26.90;;
20245;SDS011;10281;54.406;18.556;2024-03-02T08:18:04;39.93;;;27.00;;
20245;SDS011;10281;54.406;18.556;2024-03-02T08:20:31;44.87;;;27.40;;
20245;SDS011;10281;54.406;18.556;2024-03-02T08:22:57;39.00;;;27.20;;
20245;SDS011;10281;54.406;18.556;2024-03-02T08:25:24;46.03;;;28.83;;
20245;SDS011;10281;54.406;18.556;2024-03-02T08:27:50;38.00;;;26.10;;
20245;SDS011;10281;54.406;18.556;2024-03-02T08:30:17;38.93;;;27.20;;
20245;SDS011;10281;54.406;18.556;2024-03-02T08:32:44;40.17;;;27.83;;
20245;SDS011;10281;54.406;18.556;2024-03-02T08:35:12;40.43;;;27.17;;
20245;SDS011;10281;54.406;18.556;2024-03-02T08:37:39;40.43;;;27.73;;
20245;SDS011;10281;54.406;18.556;2024-03-02T08:40:09;39.87;;;26.50;;
20245;SDS011;10281;54.406;18.556;2024-03-02T08:42:36;41.93;;;29.03;;
20245;SDS011;10281;54.406;18.556;2024-03-02T08:45:03;43.47;;;27.60;;
20245;SDS011;10281;54.406;18.556;2024-03-02T08:47:30;36.63;;;26.37;;
20245;SDS011;10281;54.406;18.556;2024-03-02T08:49:56;37.93;;;26.33;;
20245;SDS011;10281;54.406;18.556;2024-03-02T08:52:23;40.57;;;26.93;;
20245;SDS011;10281;54.406;18.556;2024-03-02T08:54:49;38.37;;;26.47;;
20245;SDS011;10281;54.406;18.556;2024-03-02T08:57:16;38.93;;;26.97;;
20245;SDS011;10281;54.406;18.556;2024-03-02T08:59:43;41.57;;;27.60;;
20245;SDS011;10281;54.406;18.556;2024-03-02T09:02:09;41.10;;;27.67;;
20245;SDS011;10281;54.406;18.556;2024-03-02T09:04:36;42.37;;;27.73;;
20245;SDS011;10281;54.406;18.556;2024-03-02T09:07:03;39.20;;;27.13;;
20245;SDS011;10281;54.406;18.556;2024-03-02T09:09:30;39.57;;;28.10;;
20245;SDS011;10281;54.406;18.556;2024-03-02T09:11:57;41.43;;;28.50;;
20245;SDS011;10281;54.406;18.556;2024-03-02T09:14:24;42.37;;;27.53;;
20245;SDS011;10281;54.406;18.556;2024-03-02T09:16:50;43.00;;;28.83;;
20245;SDS011;10281;54.406;18.556;2024-03-02T09:19:17;40.47;;;28.33;;
20245;SDS011;10281;54.406;18.556;2024-03-02T09:21:44;39.57;;;26.97;;
20245;SDS011;10281;54.406;18.556;2024-03-02T09:24:11;43.37;;;27.53;;
20245;SDS011;10281;54.406;18.556;2024-03-02T09:26:38;42.13;;;27.13;;
20245;SDS011;10281;54.406;18.556;2024-03-02T09:29:04;39.07;;;26.07;;
20245;SDS011;10281;54.406;18.556;2024-03-02T09:31:31;40.40;;;28.57;;
20245;SDS011;10281;54.406;18.556;2024-03-02T09:33:58;41.33;;;28.30;;
20245;SDS011;10281;54.406;18.556;2024-03-02T09:36:24;41.77;;;28.60;;
20245;SDS011;10281;54.406;18.556;2024-03-02T09:38:51;39.53;;;26.70;;
20245;SDS011;10281;54.406;18.556;2024-03-02T09:41:17;39.33;;;28.30;;
20245;SDS011;10281;54.406;18.556;2024-03-02T09:43:44;40.30;;;27.57;;
20245;SDS011;10281;54.406;18.556;2024-03-02T09:46:11;48.40;;;30.13;;
20245;SDS011;10281;54.406;18.556;2024-03-02T09:48:37;41.67;;;27.47;;
20245;SDS011;10281;54.406;18.556;2024-03-02T09:51:04;42.60;;;30.27;;
20245;SDS011;10281;54.406;18.556;2024-03-02T09:53:31;38.33;;;27.23;;
20245;SDS011;10281;54.406;18.556;2024-03-02T09:55:59;42.53;;;28.97;;
20245;SDS011;10281;54.406;18.556;2024-03-02T09:58:26;39.97;;;28.37;;
20245;SDS011;10281;54.406;18.556;2024-03-02T10:00:53;40.93;;;29.13;;
20245;SDS011;10281;54.406;18.556;2024-03-02T10:03:20;40.87;;;28.03;;
20245;SDS011;10281;54.406;18.556;2024-03-02T10:05:48;40.10;;;28.53;;
20245;SDS011;10281;54.406;18.556;2024-03-02T10:08:15;41.53;;;29.23;;
20245;SDS011;10281;54.406;18.556;2024-03-02T10:10:42;37.57;;;26.43;;
20245;SDS011;10281;54.406;18.556;2024-03-02T10:13:09;37.97;;;28.33;;
20245;SDS011;10281;54.406;18.556;2024-03-02T10:15:37;41.70;;;27.90;;
20245;SDS011;10281;54.406;18.556;2024-03-02T10:18:08;38.87;;;28.27;;
20245;SDS011;10281;54.406;18.556;2024-03-02T10:20:37;39.27;;;27.07;;
20245;SDS011;10281;54.406;18.556;2024-03-02T10:25:40;40.43;;;27.60;;
20245;SDS011;10281;54.406;18.556;2024-03-02T10:28:07;38.43;;;27.20;;
20245;SDS011;10281;54.406;18.556;2024-03-02T10:30:33;36.40;;;25.87;;
20245;SDS011;10281;54.406;18.556;2024-03-02T10:33:02;36.87;;;26.63;;
20245;SDS011;10281;54.406;18.556;2024-03-02T10:35:29;39.80;;;27.20;;
20245;SDS011;10281;54.406;18.556;2024-03-02T10:37:58;36.13;;;26.87;;
20245;SDS011;10281;54.406;18.556;2024-03-02T10:40:26;39.00;;;27.97;;
20245;SDS011;10281;54.406;18.556;2024-03-02T10:42:53;35.50;;;27.47;;
20245;SDS011;10281;54.406;18.556;2024-03-02T10:45:20;36.87;;;28.33;;
20245;SDS011;10281;54.406;18.556;2024-03-02T10:47:48;36.53;;;27.77;;
20245;SDS011;10281;54.406;18.556;2024-03-02T10:50:16;38.03;;;27.30;;
20245;SDS011;10281;54.406;18.556;2024-03-02T10:52:43;41.53;;;27.93;;
20245;SDS011;10281;54.406;18.556;2024-03-02T10:55:09;39.40;;;28.60;;
20245;SDS011;10281;54.406;18.556;2024-03-02T10:57:42;39.13;;;28.33;;
20245;SDS011;10281;54.406;18.556;2024-03-02T11:00:19;35.37;;;26.87;;
20245;SDS011;10281;54.406;18.556;2024-03-02T11:02:50;37.27;;;27.63;;
20245;SDS011;10281;54.406;18.556;2024-03-02T11:05:27;36.83;;;27.30;;
20245;SDS011;10281;54.406;18.556;2024-03-02T11:07:57;36.80;;;27.83;;
20245;SDS011;10281;54.406;18.556;2024-03-02T11:10:31;36.33;;;27.13;;
20245;SDS011;10281;54.406;18.556;2024-03-02T11:13:04;35.67;;;26.63;;
20245;SDS011;10281;54.406;18.556;2024-03-02T11:15:31;36.97;;;26.67;;
20245;SDS011;10281;54.406;18.556;2024-03-02T11:18:03;36.23;;;26.97;;
20245;SDS011;10281;54.406;18.556;2024-03-02T11:20:33;34.80;;;25.90;;
20245;SDS011;10281;54.406;18.556;2024-03-02T11:23:04;35.83;;;27.00;;
20245;SDS011;10281;54.406;18.556;2024-03-02T11:25:32;34.17;;;26.10;;
20245;SDS011;10281;54.406;18.556;2024-03-02T11:27:59;35.90;;;26.80;;
20245;SDS011;10281;54.406;18.556;2024-03-02T11:33:15;36.03;;;26.40;;
20245;SDS011;10281;54.406;18.556;2024-03-02T11:35:46;31.40;;;24.30;;
20245;SDS011;10281;54.406;18.556;2024-03-02T11:38:13;33.23;;;25.60;;
20245;SDS011;10281;54.406;18.556;2024-03-02T11:40:40;32.03;;;24.27;;
20245;SDS011;10281;54.406;18.556;2024-03-02T11:43:07;35.63;;;26.40;;
20245;SDS011;10281;54.406;18.556;2024-03-02T11:45:36;32.20;;;24.67;;
20245;SDS011;10281;54.406;18.556;2024-03-02T11:48:08;37.87;;;24.93;;
20245;SDS011;10281;54.406;18.556;2024-03-02T11:50:47;36.20;;;24.80;;
20245;SDS011;10281;54.406;18.556;2024-03-02T11:53:16;34.23;;;24.47;;
20245;SDS011;10281;54.406;18.556;2024-03-02T11:55:43;33.60;;;24.73;;
20245;SDS011;10281;54.406;18.556;2024-03-02T11:58:12;33.80;;;25.73;;
20245;SDS011;10281;54.406;18.556;2024-03-02T12:00:39;37.37;;;25.33;;
20245;SDS011;10281;54.406;18.556;2024-03-02T12:03:07;32.67;;;25.47;;
20245;SDS011;10281;54.406;18.556;2024-03-02T12:05:35;38.23;;;26.73;;
20245;SDS011;10281;54.406;18.556;2024-03-02T12:08:03;35.70;;;25.93;;
20245;SDS011;10281;54.406;18.556;2024-03-02T12:10:32;33.10;;;24.77;;
20245;SDS011;10281;54.406;18.556;2024-03-02T12:13:00;34.73;;;24.67;;
20245;SDS011;10281;54.406;18.556;2024-03-02T12:15:29;36.07;;;25.93;;
20245;SDS011;10281;54.406;18.556;2024-03-02T12:17:57;32.83;;;24.80;;
20245;SDS011;10281;54.406;18.556;2024-03-02T12:20:26;35.63;;;26.13;;
20245;SDS011;10281;54.406;18.556;2024-03-02T12:22:55;34.63;;;25.37;;
20245;SDS011;10281;54.406;18.556;2024-03-02T12:25:24;32.23;;;25.13;;
20245;SDS011;10281;54.406;18.556;2024-03-02T12:27:53;37.80;;;26.30;;
20245;SDS011;10281;54.406;18.556;2024-03-02T12:30:21;38.33;;;26.30;;
20245;SDS011;10281;54.406;18.556;2024-03-02T12:32:49;34.10;;;26.00;;
20245;SDS011;10281;54.406;18.556;2024-03-02T12:35:17;35.83;;;26.03;;
20245;SDS011;10281;54.406;18.556;2024-03-02T12:37:45;35.43;;;25.63;;
20245;SDS011;10281;54.406;18.556;2024-03-02T12:40:13;34.40;;;25.47;;
20245;SDS011;10281;54.406;18.556;2024-03-02T12:42:43;33.77;;;25.13;;
20245;SDS011;10281;54.406;18.556;2024-03-02T12:45:10;36.20;;;26.13;;
20245;SDS011;10281;54.406;18.556;2024-03-02T12:47:37;35.03;;;25.90;;
20245;SDS011;10281;54.406;18.556;2024-03-02T12:50:06;32.50;;;25.97;;
20245;SDS011;10281;54.406;18.556;2024-03-02T12:52:34;35.30;;;27.53;;
20245;SDS011;10281;54.406;18.556;2024-03-02T12:55:03;35.70;;;27.73;;
20245;SDS011;10281;54.406;18.556;2024-03-02T12:57:31;33.30;;;26.10;;
20245;SDS011;10281;54.406;18.556;2024-03-02T12:59:59;37.37;;;26.53;;
20245;SDS011;10281;54.406;18.556;2024-03-02T13:02:29;35.47;;;26.80;;
20245;SDS011;10281;54.406;18.556;2024-03-02T13:04:57;39.50;;;26.70;;
20245;SDS011;10281;54.406;18.556;2024-03-02T13:07:24;36.40;;;26.93;;
20245;SDS011;10281;54.406;18.556;2024-03-02T13:09:53;33.10;;;25.50;;
20245;SDS011;10281;54.406;18.556;2024-03-02T13:12:22;35.77;;;25.50;;
20245;SDS011;10281;54.406;18.556;2024-03-02T13:14:52;32.93;;;25.43;;
20245;SDS011;10281;54.406;18.556;2024-03-02T13:17:19;30.73;;;24.37;;
20245;SDS011;10281;54.406;18.556;2024-03-02T13:19:51;31.27;;;25.23;;
20245;SDS011;10281;54.406;18.556;2024-03-02T13:22:19;34.73;;;25.33;;
20245;SDS011;10281;54.406;18.556;2024-03-02T13:24:47;32.57;;;25.67;;
20245;SDS011;10281;54.406;18.556;2024-03-02T13:27:15;35.70;;;25.27;;
20245;SDS011;10281;54.406;18.556;2024-03-02T13:29:45;33.93;;;26.30;;
20245;SDS011;10281;54.406;18.556;2024-03-02T13:32:14;33.47;;;24.97;;
20245;SDS011;10281;54.406;18.556;2024-03-02T13:34:41;34.30;;;26.57;;
20245;SDS011;10281;54.406;18.556;2024-03-02T13:37:09;31.77;;;25.47;;
20245;SDS011;10281;54.406;18.556;2024-03-02T13:39:35;33.83;;;25.87;;
20245;SDS011;10281;54.406;18.556;2024-03-02T13:42:07;35.60;;;25.50;;
20245;SDS011;10281;54.406;18.556;2024-03-02T13:44:35;31.80;;;25.57;;
20245;SDS011;10281;54.406;18.556;2024-03-02T13:47:02;37.17;;;26.27;;
20245;SDS011;10281;54.406;18.556;2024-03-02T13:49:30;33.03;;;25.40;;
20245;SDS011;10281;54.406;18.556;2024-03-02T13:52:02;35.53;;;26.23;;
20245;SDS011;10281;54.406;18.556;2024-03-02T13:54:31;32.43;;;24.90;;
20245;SDS011;10281;54.406;18.556;2024-03-02T13:56:58;33.80;;;26.07;;
20245;SDS011;10281;54.406;18.556;2024-03-02T13:59:25;35.13;;;26.50;;
20245;SDS011;10281;54.406;18.556;2024-03-02T14:01:52;37.33;;;26.60;;
20245;SDS011;10281;54.406;18.556;2024-03-02T14:04:19;33.43;;;24.23;;
20245;SDS011;10281;54.406;18.556;2024-03-02T14:06:45;38.13;;;24.97;;
20245;SDS011;10281;54.406;18.556;2024-03-02T14:09:12;32.87;;;24.57;;
20245;SDS011;10281;54.406;18.556;2024-03-02T14:11:38;32.40;;;24.40;;
20245;SDS011;10281;54.406;18.556;2024-03-02T14:14:05;29.33;;;23.47;;
20245;SDS011;10281;54.406;18.556;2024-03-02T14:16:32;33.00;;;23.53;;
20245;SDS011;10281;54.406;18.556;2024-03-02T14:18:58;31.77;;;24.07;;
20245;SDS011;10281;54.406;18.556;2024-03-02T14:21:25;35.37;;;23.83;;